createdAt,value
2022-09-07T00:02:24.433Z,16.14
2022-09-07T00:04:51.069Z,16.16
2022-09-07T00:07:17.767Z,16.11
2022-09-07T00:09:44.484Z,16.10
2022-09-07T00:12:11.141Z,16.04
2022-09-07T00:14:37.798Z,16.06
2022-09-07T00:17:04.517Z,16.10
2022-09-07T00:19:31.228Z,16.10
2022-09-07T00:21:57.886Z,16.10
2022-09-07T00:24:24.572Z,16.12
2022-09-07T00:26:54.504Z,16.14
2022-09-07T00:29:21.194Z,16.17
2022-09-07T00:31:47.924Z,16.19
2022-09-07T00:34:14.657Z,16.20
2022-09-07T00:36:41.291Z,16.24
2022-09-07T00:39:08.486Z,16.29
2022-09-07T00:41:35.117Z,16.35
2022-09-07T00:44:39.468Z,16.50
2022-09-07T00:47:13.138Z,16.57
2022-09-07T00:49:41.133Z,16.55
2022-09-07T00:52:09.239Z,16.51
2022-09-07T00:54:43.974Z,16.50
2022-09-07T00:57:10.935Z,16.53
2022-09-07T00:59:44.641Z,16.45
2022-09-07T01:02:13.206Z,16.39
2022-09-07T01:04:40.741Z,16.38
2022-09-07T01:07:08.796Z,16.41
2022-09-07T01:09:36.573Z,16.40
2022-09-07T01:12:04.659Z,16.40
2022-09-07T01:14:34.844Z,16.44
2022-09-07T01:17:16.427Z,16.37
2022-09-07T01:19:57.438Z,16.36
2022-09-07T01:22:55.971Z,16.38
2022-09-07T01:25:37.854Z,16.36
2022-09-07T01:28:19.034Z,16.39
2022-09-07T01:30:55.558Z,16.39
2022-09-07T01:33:43.244Z,16.41
2022-09-07T01:36:24.797Z,16.41
2022-09-07T01:38:56.260Z,16.39
2022-09-07T01:41:55.977Z,16.37
2022-09-07T01:44:41.875Z,16.34
2022-09-07T01:47:15.769Z,16.32
2022-09-07T01:49:49.416Z,16.31
2022-09-07T01:52:42.459Z,16.30
2022-09-07T01:55:30.511Z,16.21
2022-09-07T01:58:25.606Z,16.09
2022-09-07T02:01:00.196Z,16.05
2022-09-07T02:03:38.751Z,16.01
2022-09-07T02:06:11.528Z,16.00
2022-09-07T02:08:47.088Z,16.03
2022-09-07T02:11:19.992Z,15.96
2022-09-07T02:13:49.817Z,15.99
2022-09-07T02:16:31.310Z,16.06
2022-09-07T02:19:07.947Z,16.04
2022-09-07T02:21:38.616Z,16.08
2022-09-07T02:24:17.145Z,16.12
2022-09-07T02:26:49.210Z,16.13
2022-09-07T02:29:15.916Z,16.09
2022-09-07T02:31:42.875Z,15.98
2022-09-07T02:34:10.329Z,15.94
2022-09-07T02:36:44.387Z,15.89
2022-09-07T02:39:11.048Z,15.77
2022-09-07T02:41:41.177Z,15.62
2022-09-07T02:44:14.141Z,15.71
2022-09-07T02:47:03.740Z,15.80
2022-09-07T02:49:51.673Z,15.80
2022-09-07T02:52:36.199Z,15.88
2022-09-07T02:55:35.360Z,15.87
2022-09-07T02:58:39.058Z,15.90
2022-09-07T03:01:12.709Z,15.95
2022-09-07T03:04:00.753Z,15.94
2022-09-07T03:06:39.677Z,15.95
2022-09-07T03:09:36.387Z,15.95
2022-09-07T03:12:07.721Z,15.96
2022-09-07T03:14:36.144Z,15.97
2022-09-07T03:17:03.108Z,16.04
2022-09-07T03:19:29.793Z,16.13
2022-09-07T03:21:56.457Z,16.18
2022-09-07T03:24:23.095Z,16.17
2022-09-07T03:26:51.316Z,16.19
2022-09-07T03:29:19.111Z,16.18
2022-09-07T03:31:46.319Z,16.19
2022-09-07T03:34:13.202Z,16.10
2022-09-07T03:36:39.969Z,15.98
2022-09-07T03:39:07.085Z,15.93
2022-09-07T03:41:34.274Z,15.88
2022-09-07T03:44:07.815Z,15.79
2022-09-07T03:46:35.106Z,15.73
2022-09-07T03:49:01.773Z,15.66
2022-09-07T03:51:28.583Z,15.64
2022-09-07T03:53:55.344Z,15.73
2022-09-07T03:56:24.303Z,15.75
2022-09-07T03:58:51.522Z,15.81
2022-09-07T04:01:21.886Z,15.89
2022-09-07T04:03:49.115Z,15.96
2022-09-07T04:06:17.048Z,16.04
2022-09-07T04:08:44.621Z,16.08
2022-09-07T04:11:14.908Z,16.06
2022-09-07T04:13:42.490Z,16.06
2022-09-07T04:16:18.131Z,16.06
2022-09-07T04:18:44.917Z,16.09
2022-09-07T04:21:12.302Z,16.11
2022-09-07T04:23:40.407Z,16.10
2022-09-07T04:26:07.340Z,16.12
2022-09-07T04:28:34.058Z,16.05
2022-09-07T04:31:03.682Z,16.06
2022-09-07T04:33:34.318Z,16.04
2022-09-07T04:36:02.034Z,16.01
2022-09-07T04:38:28.981Z,15.97
2022-09-07T04:41:03.695Z,15.94
2022-09-07T04:43:30.456Z,15.97
2022-09-07T04:45:57.490Z,15.95
2022-09-07T04:48:25.327Z,15.89
2022-09-07T04:50:52.274Z,15.88
2022-09-07T04:53:19.687Z,15.88
2022-09-07T04:55:46.466Z,15.92
2022-09-07T04:58:13.171Z,15.94
2022-09-07T05:00:40.127Z,15.96
2022-09-07T05:03:06.803Z,15.97
2022-09-07T05:05:38.263Z,16.01
2022-09-07T05:08:05.045Z,16.02
2022-09-07T05:10:32.159Z,16.05
2022-09-07T05:12:58.895Z,16.07
2022-09-07T05:15:28.303Z,16.08
2022-09-07T05:17:54.981Z,16.11
2022-09-07T05:20:22.012Z,16.13
2022-09-07T05:22:48.695Z,16.12
2022-09-07T05:25:15.391Z,16.12
2022-09-07T05:27:42.426Z,16.06
2022-09-07T05:32:56.567Z,16.11
2022-09-07T05:35:23.344Z,16.14
2022-09-07T05:37:50.885Z,16.15
2022-09-07T05:40:17.737Z,16.15
2022-09-07T05:42:44.784Z,16.16
2022-09-07T05:45:11.812Z,16.14
2022-09-07T05:47:39.413Z,16.13
2022-09-07T05:50:07.994Z,16.23
2022-09-07T05:52:36.075Z,16.34
2022-09-07T05:55:28.318Z,16.40
2022-09-07T05:57:50.391Z,16.46
2022-09-07T06:00:17.195Z,16.55
2022-09-07T06:02:43.976Z,16.62
2022-09-07T06:05:11.213Z,16.64
2022-09-07T06:07:41.060Z,16.72
2022-09-07T06:12:56.042Z,17.11
2022-09-07T06:15:22.834Z,17.29
2022-09-07T06:17:49.623Z,17.42
2022-09-07T06:20:19.473Z,17.54
2022-09-07T06:22:46.131Z,17.67
2022-09-07T06:25:12.853Z,17.76
2022-09-07T06:27:39.657Z,17.82
2022-09-07T06:30:07.437Z,18.00
2022-09-07T06:32:45.255Z,18.13
2022-09-07T06:35:13.015Z,18.24
2022-09-07T06:37:40.013Z,18.48
2022-09-07T06:40:07.853Z,18.59
2022-09-07T06:42:34.628Z,18.70
2022-09-07T06:45:02.383Z,18.75
2022-09-07T06:47:29.171Z,18.75
2022-09-07T06:49:55.819Z,18.86
2022-09-07T06:52:22.570Z,19.06
2022-09-07T06:55:04.701Z,19.07
2022-09-07T06:57:31.387Z,19.28
2022-09-07T06:59:58.561Z,19.18
2022-09-07T07:02:25.267Z,19.38
2022-09-07T07:04:52.129Z,19.33
2022-09-07T07:07:19.150Z,19.47
2022-09-07T07:09:45.874Z,19.81
2022-09-07T07:12:12.594Z,20.01
2022-09-07T07:14:44.019Z,19.97
2022-09-07T07:17:11.808Z,20.15
2022-09-07T07:19:38.515Z,20.17
2022-09-07T07:24:52.204Z,20.43
2022-09-07T07:27:18.912Z,20.57
2022-09-07T07:29:46.443Z,20.55
2022-09-07T07:32:13.110Z,20.48
2022-09-07T07:34:39.719Z,20.59
2022-09-07T07:37:13.041Z,20.34
2022-09-07T07:42:26.531Z,20.31
2022-09-07T07:47:39.831Z,20.36
2022-09-07T07:55:43.538Z,20.58
2022-09-07T07:58:10.725Z,20.69
2022-09-07T08:00:51.021Z,20.88
2022-09-07T08:03:25.248Z,21.07
2022-09-07T08:05:52.203Z,21.08
2022-09-07T08:08:19.057Z,21.12
2022-09-07T08:10:47.897Z,21.14
2022-09-07T08:13:15.779Z,21.20
2022-09-07T08:15:45.752Z,21.38
2022-09-07T08:18:13.678Z,21.49
2022-09-07T08:20:40.579Z,21.50
2022-09-07T08:23:08.118Z,21.67
2022-09-07T08:25:35.528Z,21.57
2022-09-07T08:28:03.941Z,21.68
2022-09-07T08:30:30.629Z,21.66
2022-09-07T08:32:57.182Z,22.01
2022-09-07T08:35:23.732Z,22.30
2022-09-07T08:37:50.257Z,22.32
2022-09-07T08:40:18.587Z,22.32
2022-09-07T08:43:16.604Z,22.84
2022-09-07T08:45:48.761Z,22.95
2022-09-07T08:48:20.997Z,23.31
2022-09-07T08:51:25.433Z,23.29
2022-09-07T08:56:23.306Z,23.84
2022-09-07T08:58:53.180Z,24.12
2022-09-07T09:01:31.361Z,23.92
2022-09-07T09:07:16.566Z,23.84
2022-09-07T09:09:56.217Z,23.76
2022-09-07T09:12:46.455Z,23.46
2022-09-07T09:15:21.449Z,23.44
2022-09-07T09:17:55.191Z,23.28
2022-09-07T09:20:41.574Z,22.92
2022-09-07T09:23:17.345Z,22.88
2022-09-07T09:25:52.250Z,22.84
2022-09-07T09:28:22.140Z,22.75
2022-09-07T09:30:48.871Z,22.62
2022-09-07T09:33:20.439Z,22.78
2022-09-07T09:35:50.061Z,22.65
2022-09-07T09:38:29.349Z,22.66
2022-09-07T09:40:58.359Z,22.95
2022-09-07T09:43:28.092Z,23.25
2022-09-07T09:46:12.718Z,23.35
2022-09-07T09:48:41.526Z,23.37
2022-09-07T09:54:07.139Z,23.80
2022-09-07T09:56:42.408Z,23.62
2022-09-07T10:05:40.977Z,23.17
2022-09-07T10:08:29.054Z,23.64
2022-09-07T10:11:04.639Z,23.78
2022-09-07T10:13:32.495Z,24.07
2022-09-07T10:16:03.650Z,24.26
2022-09-07T10:18:35.698Z,24.63
2022-09-07T10:21:32.246Z,25.06
2022-09-07T10:24:23.240Z,24.87
2022-09-07T10:26:50.222Z,25.04
2022-09-07T10:29:30.621Z,24.94
2022-09-07T10:32:20.846Z,25.19
2022-09-07T10:35:17.620Z,25.42
2022-09-07T10:38:11.542Z,25.67
2022-09-07T10:40:44.142Z,25.82
2022-09-07T10:43:23.781Z,26.42
2022-09-07T10:45:59.598Z,26.59
2022-09-07T10:48:46.431Z,27.24
2022-09-07T10:51:22.263Z,27.30
2022-09-07T10:54:31.291Z,26.71
2022-09-07T10:57:06.984Z,26.54
2022-09-07T11:00:11.765Z,25.91
2022-09-07T11:06:22.086Z,25.14
2022-09-07T11:09:18.684Z,25.32
2022-09-07T11:12:09.750Z,25.85
2022-09-07T11:14:46.784Z,26.61
2022-09-07T11:17:17.606Z,27.36
2022-09-07T11:19:47.419Z,28.09
2022-09-07T11:22:32.833Z,28.30
2022-09-07T11:28:14.224Z,29.07
2022-09-07T11:30:46.703Z,29.20
2022-09-07T11:33:21.108Z,29.44
2022-09-07T11:35:53.329Z,29.53
2022-09-07T11:38:33.935Z,30.29
2022-09-07T11:41:17.216Z,31.00
2022-09-07T11:43:47.892Z,30.75
2022-09-07T11:46:33.577Z,30.24
2022-09-07T11:49:04.368Z,29.29
2022-09-07T11:51:43.076Z,28.56
2022-09-07T11:54:45.883Z,28.86
2022-09-07T11:57:24.718Z,29.02
2022-09-07T12:00:22.438Z,29.86
2022-09-07T12:03:00.558Z,30.14
2022-09-07T12:05:57.267Z,29.63
2022-09-07T12:08:48.713Z,29.52
2022-09-07T12:11:43.295Z,30.25
2022-09-07T12:14:19.804Z,30.89
2022-09-07T12:17:04.966Z,31.28
2022-09-07T12:19:31.683Z,30.62
2022-09-07T12:22:02.147Z,30.70
2022-09-07T12:24:49.698Z,31.05
2022-09-07T12:27:22.218Z,31.70
2022-09-07T12:29:59.644Z,30.92
2022-09-07T12:32:57.031Z,32.08
2022-09-07T12:35:37.251Z,32.25
2022-09-07T12:38:24.925Z,31.75
2022-09-07T12:41:22.036Z,32.12
2022-09-07T12:43:48.560Z,33.14
2022-09-07T12:46:44.009Z,32.81
2022-09-07T12:49:24.932Z,31.65
2022-09-07T12:52:15.169Z,31.65
2022-09-07T12:54:42.183Z,32.50
2022-09-07T12:57:32.682Z,32.82
2022-09-07T13:00:06.976Z,33.86
2022-09-07T13:02:42.502Z,34.86
2022-09-07T13:05:30.995Z,35.44
2022-09-07T13:08:18.881Z,34.44
2022-09-07T13:10:47.147Z,34.34
2022-09-07T13:16:30.663Z,35.27
2022-09-07T13:19:01.919Z,34.63
2022-09-07T13:21:42.782Z,32.01
2022-09-07T13:27:19.738Z,33.11
2022-09-07T13:29:50.423Z,34.11
2022-09-07T13:35:23.772Z,35.62
2022-09-07T13:38:02.555Z,36.34
2022-09-07T13:40:38.067Z,36.83
2022-09-07T13:43:05.872Z,36.86
2022-09-07T13:45:49.285Z,36.86
2022-09-07T13:48:30.853Z,35.91
2022-09-07T13:51:07.225Z,35.83
2022-09-07T13:53:52.375Z,36.65
2022-09-07T13:56:33.586Z,35.61
2022-09-07T13:59:12.420Z,37.05
2022-09-07T14:01:45.223Z,37.00
2022-09-07T14:04:21.509Z,37.34
2022-09-07T14:06:48.137Z,37.22
2022-09-07T14:09:21.687Z,36.10
2022-09-07T14:11:54.136Z,37.37
2022-09-07T14:14:29.563Z,35.94
2022-09-07T14:16:59.210Z,35.03
2022-09-07T14:19:41.771Z,34.94
2022-09-07T14:22:16.925Z,36.47
2022-09-07T14:24:49.353Z,34.81
2022-09-07T14:27:27.091Z,34.94
2022-09-07T14:29:54.660Z,34.10
2022-09-07T14:32:25.002Z,34.28
2022-09-07T14:34:52.578Z,36.49
2022-09-07T14:37:22.142Z,36.22
2022-09-07T14:39:50.108Z,38.37
2022-09-07T14:42:22.958Z,38.79
2022-09-07T14:44:50.247Z,38.19
2022-09-07T14:47:33.820Z,37.28
2022-09-07T14:50:06.008Z,37.46
2022-09-07T14:52:43.364Z,38.68
2022-09-07T14:55:36.564Z,37.64
2022-09-07T14:58:15.449Z,36.64
2022-09-07T15:00:46.840Z,37.86
2022-09-07T15:03:27.468Z,36.91
2022-09-07T15:06:00.783Z,37.00
2022-09-07T15:08:48.720Z,35.87
2022-09-07T15:11:36.191Z,36.00
2022-09-07T15:14:11.779Z,34.92
2022-09-07T15:16:42.523Z,32.83
2022-09-07T15:19:15.330Z,32.25
2022-09-07T15:21:42.642Z,31.70
2022-09-07T15:24:09.956Z,31.14
2022-09-07T15:29:29.099Z,31.13
2022-09-07T15:32:03.278Z,30.78
2022-09-07T15:34:33.243Z,30.20
2022-09-07T15:37:02.410Z,30.23
2022-09-07T15:39:30.774Z,30.35
2022-09-07T15:42:00.437Z,29.98
2022-09-07T15:44:44.696Z,29.56
2022-09-07T16:28:34.751Z,26.96
2022-09-07T16:31:07.364Z,26.86
2022-09-07T16:33:37.028Z,26.75
2022-09-07T16:36:12.154Z,26.61
2022-09-07T16:38:47.420Z,26.54
2022-09-07T16:41:17.047Z,26.29
2022-09-07T16:43:43.921Z,25.96
2022-09-07T16:46:14.208Z,25.63
2022-09-07T16:48:41.607Z,25.27
2022-09-07T16:51:10.989Z,25.12
2022-09-07T16:53:38.201Z,25.02
2022-09-07T16:56:16.924Z,25.00
2022-09-07T16:58:45.979Z,24.69
2022-09-07T17:01:15.456Z,24.21
2022-09-07T17:03:42.797Z,23.88
2022-09-07T17:06:12.040Z,23.49
2022-09-07T17:08:39.781Z,23.35
2022-09-07T17:11:09.032Z,23.34
2022-09-07T17:13:38.010Z,23.28
2022-09-07T17:16:08.542Z,23.19
2022-09-07T17:21:23.560Z,22.89
2022-09-07T17:23:55.350Z,22.62
2022-09-07T17:26:26.250Z,22.41
2022-09-07T17:28:56.673Z,22.07
2022-09-07T17:34:21.722Z,21.48
2022-09-07T17:36:48.981Z,21.31
2022-09-07T17:39:17.784Z,21.37
2022-09-07T17:41:46.708Z,21.45
2022-09-07T17:44:13.489Z,21.36
2022-09-07T17:46:40.207Z,21.18
2022-09-07T17:49:11.204Z,21.28
2022-09-07T17:51:38.294Z,21.27
2022-09-07T17:54:10.824Z,20.92
2022-09-07T17:56:39.070Z,20.48
2022-09-07T18:01:53.932Z,20.35
2022-09-07T18:04:21.297Z,20.44
2022-09-07T18:06:48.678Z,20.43
2022-09-07T18:09:15.750Z,20.43
2022-09-07T18:11:46.786Z,20.27
2022-09-07T18:14:15.233Z,20.20
2022-09-07T18:16:43.953Z,20.29
2022-09-07T18:19:12.146Z,20.01
2022-09-07T18:21:41.989Z,19.76
2022-09-07T18:24:17.432Z,19.92
2022-09-07T18:26:50.135Z,19.94
2022-09-07T18:29:28.725Z,19.89
2022-09-07T18:31:58.387Z,19.73
2022-09-07T18:34:25.588Z,19.66
2022-09-07T18:36:52.356Z,19.46
2022-09-07T18:39:18.978Z,19.37
2022-09-07T18:41:45.778Z,19.23
2022-09-07T18:46:58.967Z,19.20
2022-09-07T18:49:25.547Z,19.22
2022-09-07T18:54:41.293Z,19.15
2022-09-07T18:57:08.271Z,19.13
2022-09-07T18:59:34.881Z,19.16
2022-09-07T19:02:04.802Z,19.12
2022-09-07T19:07:20.468Z,19.19
2022-09-07T19:09:48.554Z,19.20
2022-09-07T19:12:15.759Z,19.24
2022-09-07T19:14:42.418Z,19.22
2022-09-07T19:17:12.067Z,19.15
2022-09-07T19:19:39.594Z,19.15
2022-09-07T19:22:06.270Z,19.08
2022-09-07T19:24:33.325Z,18.93
2022-09-07T19:27:01.593Z,18.97
2022-09-07T19:29:29.039Z,18.87
2022-09-07T19:32:04.668Z,18.82
2022-09-07T19:34:36.184Z,18.69
2022-09-07T19:37:04.032Z,18.55
2022-09-07T19:39:30.711Z,18.51
2022-09-07T19:41:57.441Z,18.51
2022-09-07T19:44:25.058Z,18.45
2022-09-07T19:46:51.738Z,18.47
2022-09-07T19:49:18.334Z,18.54
2022-09-07T19:51:45.104Z,18.40
2022-09-07T19:54:13.278Z,18.32
2022-09-07T19:56:42.751Z,18.36
2022-09-07T19:59:09.718Z,18.36
2022-09-07T20:01:37.641Z,18.30
2022-09-07T20:04:07.202Z,18.37
2022-09-07T20:06:34.760Z,18.34
2022-09-07T20:09:01.805Z,18.25
2022-09-07T20:11:29.056Z,18.21
2022-09-07T20:13:57.048Z,18.24
2022-09-07T20:16:24.543Z,18.27
2022-09-07T20:18:51.628Z,18.31
2022-09-07T20:21:23.480Z,18.20
2022-09-07T20:23:51.105Z,18.27
2022-09-07T20:26:19.775Z,18.26
2022-09-07T20:28:46.742Z,18.29
2022-09-07T20:31:15.639Z,18.39
2022-09-07T20:33:44.085Z,18.49
2022-09-07T20:36:13.537Z,18.61
2022-09-07T20:38:40.730Z,18.72
2022-09-07T20:41:22.586Z,18.77
2022-09-07T20:43:50.649Z,18.82
2022-09-07T20:46:18.542Z,18.82
2022-09-07T20:48:45.446Z,18.82
2022-09-07T20:51:18.989Z,18.80
2022-09-07T20:53:48.948Z,18.79
2022-09-07T20:56:18.241Z,18.79
2022-09-07T20:58:46.446Z,18.80
2022-09-07T21:01:15.429Z,18.86
2022-09-07T21:03:50.740Z,18.82
2022-09-07T21:06:18.768Z,18.73
2022-09-07T21:08:47.337Z,18.78
2022-09-07T21:11:20.178Z,18.69
2022-09-07T21:13:47.076Z,18.60
2022-09-07T21:16:16.227Z,18.64
2022-09-07T21:18:44.105Z,18.67
2022-09-07T21:21:20.083Z,18.71
2022-09-07T21:23:48.086Z,18.71
2022-09-07T21:26:15.221Z,18.68
2022-09-07T21:28:41.744Z,18.69
2022-09-07T21:31:09.321Z,18.60
2022-09-07T21:33:37.624Z,18.62
2022-09-07T21:36:13.236Z,18.71
2022-09-07T21:38:41.168Z,18.67
2022-09-07T21:41:13.707Z,18.66
2022-09-07T21:43:40.570Z,19.07
2022-09-07T21:46:13.765Z,19.16
2022-09-07T21:48:40.609Z,19.33
2022-09-07T21:51:07.707Z,19.66
2022-09-07T21:53:34.824Z,19.45
2022-09-07T21:56:04.649Z,19.45
2022-09-07T21:58:32.225Z,19.38
2022-09-07T22:01:00.715Z,19.53
2022-09-07T22:03:27.563Z,19.61
2022-09-07T22:05:54.161Z,19.58
2022-09-07T22:08:20.786Z,19.55
2022-09-07T22:10:47.327Z,19.54
2022-09-07T22:13:13.906Z,19.65
2022-09-07T22:15:41.515Z,19.64
2022-09-07T22:18:12.289Z,19.45
2022-09-07T22:20:39.739Z,19.11
2022-09-07T22:23:06.412Z,19.07
2022-09-07T22:25:33.493Z,18.99
2022-09-07T22:28:00.323Z,18.74
2022-09-07T22:30:27.199Z,18.76
2022-09-07T22:32:54.028Z,18.63
2022-09-07T22:35:21.138Z,18.51
2022-09-07T22:37:47.688Z,18.47
2022-09-07T22:40:14.881Z,18.38
2022-09-07T22:42:41.832Z,18.32
2022-09-07T22:45:09.188Z,18.16
2022-09-07T22:47:35.824Z,18.05
2022-09-07T22:50:02.390Z,17.93
2022-09-07T22:52:28.988Z,17.87
2022-09-07T22:54:55.698Z,17.87
2022-09-07T22:57:22.338Z,17.86
2022-09-07T22:59:48.894Z,17.81
2022-09-07T23:02:15.491Z,17.73
2022-09-07T23:04:42.212Z,17.63
2022-09-07T23:07:08.913Z,17.57
2022-09-07T23:09:35.520Z,17.30
2022-09-07T23:12:02.420Z,17.20
2022-09-07T23:14:29.015Z,17.18
2022-09-07T23:16:55.579Z,17.08
2022-09-07T23:19:22.703Z,16.96
2022-09-07T23:21:49.314Z,16.80
2022-09-07T23:24:17.813Z,16.76
2022-09-07T23:26:44.669Z,16.68
2022-09-07T23:29:13.091Z,16.69
2022-09-07T23:31:40.759Z,16.77
2022-09-07T23:34:07.854Z,16.74
2022-09-07T23:36:34.699Z,16.59
2022-09-07T23:39:01.392Z,16.53
2022-09-07T23:41:28.425Z,16.47
2022-09-07T23:43:55.910Z,16.41
2022-09-07T23:46:23.368Z,16.46
2022-09-07T23:48:50.647Z,16.50
2022-09-07T23:51:22.761Z,16.47
2022-09-07T23:53:51.278Z,16.39
2022-09-07T23:56:17.969Z,16.44
2022-09-07T23:58:45.077Z,16.44
